createdAt,value
2018-04-24T00:02:17.806Z,16.00
2018-04-24T00:04:45.322Z,16.10
2018-04-24T00:07:12.778Z,16.00
2018-04-24T00:09:40.238Z,16.10
2018-04-24T00:12:07.693Z,16.10
2018-04-24T00:14:35.117Z,16.10
2018-04-24T00:17:02.596Z,16.10
2018-04-24T00:19:30.059Z,16.00
2018-04-24T00:21:57.517Z,16.00
2018-04-24T00:24:24.977Z,16.00
2018-04-24T00:26:52.417Z,16.00
2018-04-24T00:29:19.873Z,16.00
2018-04-24T00:31:47.286Z,16.00
2018-04-24T00:34:14.760Z,16.00
2018-04-24T00:36:43.215Z,15.90
2018-04-24T00:39:12.188Z,15.70
2018-04-24T00:41:39.608Z,15.70
2018-04-24T00:44:07.021Z,15.60
2018-04-24T00:46:34.531Z,15.40
2018-04-24T00:49:01.963Z,15.30
2018-04-24T00:51:29.373Z,15.20
2018-04-24T00:53:56.897Z,15.10
2018-04-24T00:56:24.366Z,15.10
2018-04-24T00:58:52.016Z,15.00
2018-04-24T01:01:19.584Z,14.90
2018-04-24T01:03:47.021Z,14.90
2018-04-24T01:06:14.494Z,14.90
2018-04-24T01:08:41.934Z,14.80
2018-04-24T01:11:09.376Z,14.80
2018-04-24T01:13:36.856Z,14.70
2018-04-24T01:16:04.322Z,14.70
2018-04-24T01:18:31.754Z,14.70
2018-04-24T01:20:59.180Z,14.70
2018-04-24T01:23:26.693Z,14.70
2018-04-24T01:25:54.118Z,14.70
2018-04-24T01:28:21.549Z,14.70
2018-04-24T01:30:49.050Z,14.60
2018-04-24T01:33:16.485Z,14.60
2018-04-24T01:35:44.155Z,14.60
2018-04-24T01:38:12.530Z,14.60
2018-04-24T01:40:40.014Z,14.50
2018-04-24T01:43:07.451Z,14.50
2018-04-24T01:45:34.865Z,14.30
2018-04-24T01:48:03.069Z,14.10
2018-04-24T01:50:30.486Z,14.10
2018-04-24T01:52:57.994Z,14.10
2018-04-24T01:55:25.424Z,13.90
2018-04-24T01:57:52.839Z,13.90
2018-04-24T02:00:20.412Z,13.90
2018-04-24T02:02:49.353Z,13.80
2018-04-24T02:05:16.787Z,13.80
2018-04-24T02:07:44.299Z,13.70
2018-04-24T02:10:11.810Z,13.70
2018-04-24T02:12:39.237Z,13.70
2018-04-24T02:15:06.769Z,13.60
2018-04-24T02:17:34.206Z,13.60
2018-04-24T02:20:01.636Z,13.60
2018-04-24T02:22:29.214Z,13.60
2018-04-24T02:24:56.679Z,13.60
2018-04-24T02:27:24.101Z,13.60
2018-04-24T02:29:51.697Z,13.50
2018-04-24T02:32:19.128Z,13.50
2018-04-24T02:34:46.558Z,13.60
2018-04-24T02:37:13.995Z,13.50
2018-04-24T02:39:41.410Z,13.50
2018-04-24T02:42:08.851Z,13.50
2018-04-24T02:44:36.327Z,13.60
2018-04-24T02:47:03.754Z,13.60
2018-04-24T02:49:31.330Z,13.60
2018-04-24T02:51:58.757Z,13.60
2018-04-24T02:54:26.190Z,13.50
2018-04-24T02:56:53.607Z,13.40
2018-04-24T02:59:21.037Z,13.40
2018-04-24T03:01:48.462Z,13.30
2018-04-24T03:04:16.659Z,13.20
2018-04-24T03:06:44.091Z,13.20
2018-04-24T03:09:12.418Z,13.20
2018-04-24T03:11:39.894Z,13.20
2018-04-24T03:14:07.430Z,13.10
2018-04-24T03:16:34.858Z,13.00
2018-04-24T03:19:02.354Z,13.00
2018-04-24T03:21:29.782Z,13.00
2018-04-24T03:23:57.214Z,13.00
2018-04-24T03:26:24.718Z,12.90
2018-04-24T03:28:53.097Z,13.00
2018-04-24T03:31:20.549Z,13.00
2018-04-24T03:33:48.185Z,12.80
2018-04-24T03:36:15.619Z,12.70
2018-04-24T03:38:43.462Z,12.80
2018-04-24T03:41:10.926Z,12.70
2018-04-24T03:43:39.264Z,12.70
2018-04-24T03:46:06.709Z,12.70
2018-04-24T03:48:34.278Z,12.70
2018-04-24T03:51:01.742Z,12.60
2018-04-24T03:53:29.183Z,12.60
2018-04-24T03:55:56.654Z,12.60
2018-04-24T03:58:24.078Z,12.60
2018-04-24T04:00:51.562Z,12.50
2018-04-24T04:03:18.982Z,12.50
2018-04-24T04:05:46.426Z,12.40
2018-04-24T04:08:13.849Z,12.40
2018-04-24T04:10:41.285Z,12.50
2018-04-24T04:13:08.757Z,12.40
2018-04-24T04:15:36.308Z,12.50
2018-04-24T04:18:15.470Z,12.50
2018-04-24T04:20:54.762Z,12.50
2018-04-24T04:23:34.920Z,12.40
2018-04-24T04:26:02.342Z,12.40
2018-04-24T04:28:29.770Z,12.40
2018-04-24T04:30:57.189Z,12.30
2018-04-24T04:33:24.641Z,12.30
2018-04-24T04:35:52.118Z,12.20
2018-04-24T04:38:19.593Z,12.20
2018-04-24T04:40:47.121Z,12.20
2018-04-24T04:43:14.747Z,12.20
2018-04-24T04:45:42.198Z,12.20
2018-04-24T04:48:09.693Z,12.20
2018-04-24T04:50:37.137Z,12.30
2018-04-24T04:53:04.582Z,12.10
2018-04-24T04:55:32.073Z,12.10
2018-04-24T04:57:59.931Z,12.10
2018-04-24T05:00:27.577Z,12.20
2018-04-24T05:02:55.159Z,12.20
2018-04-24T05:05:22.707Z,12.30
2018-04-24T05:07:50.358Z,12.20
2018-04-24T05:10:17.813Z,12.10
2018-04-24T05:12:45.269Z,12.20
2018-04-24T05:15:13.034Z,12.10
2018-04-24T05:17:40.797Z,12.20
2018-04-24T05:20:08.502Z,12.30
2018-04-24T05:22:36.017Z,12.30
2018-04-24T05:25:03.433Z,12.40
2018-04-24T05:27:30.951Z,12.40
2018-04-24T05:29:58.562Z,12.50
2018-04-24T05:32:26.022Z,12.60
2018-04-24T05:34:53.602Z,12.60
2018-04-24T05:37:21.063Z,12.60
2018-04-24T05:39:48.640Z,12.60
2018-04-24T05:42:16.146Z,12.70
2018-04-24T05:44:43.633Z,12.70
2018-04-24T05:47:11.097Z,12.70
2018-04-24T05:49:38.650Z,12.80
2018-04-24T05:52:06.125Z,12.80
2018-04-24T05:54:33.537Z,12.90
2018-04-24T05:57:01.021Z,12.90
2018-04-24T05:59:28.646Z,12.90
2018-04-24T06:01:56.850Z,12.90
2018-04-24T06:04:24.310Z,12.90
2018-04-24T06:06:51.973Z,13.00
2018-04-24T06:09:19.461Z,13.00
2018-04-24T06:11:47.121Z,13.10
2018-04-24T06:14:14.539Z,13.10
2018-04-24T06:16:42.203Z,13.20
2018-04-24T06:19:09.643Z,13.30
2018-04-24T06:21:37.070Z,13.40
2018-04-24T06:24:04.599Z,13.60
2018-04-24T06:26:32.333Z,13.60
2018-04-24T06:28:59.766Z,13.70
2018-04-24T06:31:27.186Z,13.70
2018-04-24T06:33:54.642Z,13.80
2018-04-24T06:36:22.070Z,13.80
2018-04-24T06:38:49.609Z,13.80
2018-04-24T06:41:17.025Z,13.90
2018-04-24T06:43:44.466Z,13.90
2018-04-24T06:46:11.980Z,14.00
2018-04-24T06:48:39.433Z,14.10
2018-04-24T06:51:06.863Z,14.20
2018-04-24T06:53:34.289Z,14.30
2018-04-24T06:56:01.820Z,14.30
2018-04-24T06:58:29.601Z,14.50
2018-04-24T07:00:57.047Z,14.60
2018-04-24T07:03:24.448Z,14.70
2018-04-24T07:05:51.951Z,14.70
2018-04-24T07:08:19.397Z,14.80
2018-04-24T07:10:46.851Z,14.90
2018-04-24T07:13:14.256Z,15.00
2018-04-24T07:15:41.685Z,15.10
2018-04-24T07:18:09.128Z,15.20
2018-04-24T07:20:36.558Z,15.30
2018-04-24T07:23:04.140Z,15.40
2018-04-24T07:25:31.574Z,15.40
2018-04-24T07:27:59.050Z,15.50
2018-04-24T07:30:26.517Z,15.60
2018-04-24T07:32:54.142Z,15.70
2018-04-24T07:35:22.513Z,15.80
2018-04-24T07:37:49.995Z,15.80
2018-04-24T07:40:17.418Z,16.00
2018-04-24T07:42:45.606Z,16.20
2018-04-24T07:45:13.032Z,16.10
2018-04-24T07:47:40.454Z,16.30
2018-04-24T07:50:07.996Z,16.50
2018-04-24T07:52:35.444Z,16.50
2018-04-24T07:55:02.911Z,16.70
2018-04-24T07:57:30.326Z,16.90
2018-04-24T07:59:57.838Z,17.00
2018-04-24T08:02:25.274Z,17.20
2018-04-24T08:04:52.690Z,17.40
2018-04-24T08:07:21.014Z,17.50
2018-04-24T08:09:48.494Z,17.50
2018-04-24T08:12:16.032Z,17.60
2018-04-24T08:14:43.657Z,17.60
2018-04-24T08:17:11.248Z,17.70
2018-04-24T08:19:38.661Z,17.70
2018-04-24T08:22:06.188Z,17.70
2018-04-24T08:24:33.587Z,17.70
2018-04-24T08:27:01.010Z,17.70
2018-04-24T08:29:28.421Z,17.80
2018-04-24T08:31:55.892Z,17.90
2018-04-24T08:34:23.445Z,18.00
2018-04-24T08:36:50.862Z,18.00
2018-04-24T08:39:18.346Z,18.10
2018-04-24T08:41:45.769Z,18.20
2018-04-24T08:44:14.396Z,18.30
2018-04-24T08:46:41.857Z,18.40
2018-04-24T08:49:09.310Z,18.50
2018-04-24T08:51:36.763Z,18.60
2018-04-24T08:54:04.186Z,18.70
2018-04-24T08:56:31.706Z,18.80
2018-04-24T08:58:59.137Z,18.70
2018-04-24T09:01:26.594Z,18.70
2018-04-24T09:03:54.086Z,18.70
2018-04-24T09:06:21.596Z,18.70
2018-04-24T09:08:49.052Z,18.70
2018-04-24T09:11:16.473Z,18.70
2018-04-24T09:13:43.899Z,18.80
2018-04-24T09:16:11.344Z,18.80
2018-04-24T09:18:38.885Z,18.70
2018-04-24T09:21:06.338Z,18.60
2018-04-24T09:23:33.773Z,18.60
2018-04-24T09:26:01.186Z,18.60
2018-04-24T09:28:28.701Z,18.70
2018-04-24T09:30:56.189Z,18.60
2018-04-24T09:33:25.232Z,18.70
2018-04-24T09:35:52.577Z,18.70
2018-04-24T09:38:20.007Z,18.70
2018-04-24T09:40:47.421Z,18.80
2018-04-24T09:43:14.987Z,18.90
2018-04-24T09:45:42.431Z,19.00
2018-04-24T09:48:09.869Z,19.00
2018-04-24T09:50:37.294Z,19.00
2018-04-24T09:53:04.802Z,19.10
2018-04-24T09:55:32.233Z,19.20
2018-04-24T09:57:59.731Z,19.20
2018-04-24T10:00:33.165Z,19.30
2018-04-24T10:03:01.385Z,19.50
2018-04-24T10:05:28.839Z,19.40
2018-04-24T10:07:56.249Z,19.50
2018-04-24T10:10:23.753Z,19.50
2018-04-24T10:12:51.187Z,19.60
2018-04-24T10:15:18.666Z,19.50
2018-04-24T10:17:46.123Z,19.50
2018-04-24T10:20:13.584Z,19.60
2018-04-24T10:22:41.033Z,19.70
2018-04-24T10:25:08.449Z,19.60
2018-04-24T10:27:35.945Z,19.50
2018-04-24T10:30:03.352Z,19.50
2018-04-24T10:32:30.781Z,19.50
2018-04-24T10:34:58.234Z,19.60
2018-04-24T10:37:25.854Z,19.60
2018-04-24T10:39:53.230Z,19.60
2018-04-24T10:42:20.681Z,19.70
2018-04-24T10:44:48.176Z,19.70
2018-04-24T10:47:15.517Z,19.80
2018-04-24T10:49:43.044Z,19.90
2018-04-24T10:52:10.468Z,19.90
2018-04-24T10:54:37.882Z,19.90
2018-04-24T10:57:05.299Z,19.90
2018-04-24T10:59:32.782Z,20.00
2018-04-24T11:02:00.350Z,20.10
2018-04-24T11:04:27.791Z,20.20
2018-04-24T11:06:55.196Z,20.20
2018-04-24T11:09:22.621Z,20.10
2018-04-24T11:11:50.076Z,20.10
2018-04-24T11:14:17.518Z,20.20
2018-04-24T11:16:45.087Z,20.30
2018-04-24T11:19:12.510Z,20.30
2018-04-24T11:21:39.933Z,20.40
2018-04-24T11:24:07.441Z,20.60
2018-04-24T11:26:34.894Z,20.60
2018-04-24T11:29:02.348Z,20.70
2018-04-24T11:31:29.809Z,20.80
2018-04-24T11:33:57.266Z,20.80
2018-04-24T11:36:24.693Z,20.80
2018-04-24T11:38:52.182Z,20.80
2018-04-24T11:41:19.712Z,20.80
2018-04-24T11:43:47.294Z,20.90
2018-04-24T11:46:15.455Z,20.90
2018-04-24T11:48:42.923Z,20.90
2018-04-24T11:51:10.379Z,21.00
2018-04-24T11:53:37.790Z,21.20
2018-04-24T11:56:05.294Z,21.30
2018-04-24T11:58:32.702Z,21.40
2018-04-24T12:01:00.126Z,21.50
2018-04-24T12:03:27.662Z,21.50
2018-04-24T12:05:55.114Z,21.30
2018-04-24T12:08:22.521Z,21.20
2018-04-24T12:10:49.938Z,21.20
2018-04-24T12:13:17.356Z,21.30
2018-04-24T12:15:44.987Z,21.40
2018-04-24T12:18:12.369Z,21.50
2018-04-24T12:20:39.836Z,21.60
2018-04-24T12:23:07.314Z,21.80
2018-04-24T12:25:34.762Z,21.80
2018-04-24T12:28:02.222Z,21.90
2018-04-24T12:30:29.692Z,22.00
2018-04-24T12:32:57.152Z,22.30
2018-04-24T12:35:24.622Z,22.50
2018-04-24T12:37:52.044Z,22.60
2018-04-24T12:40:19.464Z,22.70
2018-04-24T12:42:46.877Z,22.90
2018-04-24T12:45:14.326Z,23.40
2018-04-24T12:47:41.869Z,24.30
2018-04-24T12:50:09.282Z,25.30
2018-04-24T12:52:36.711Z,26.10
2018-04-24T12:55:04.119Z,27.20
2018-04-24T12:57:31.698Z,28.00
2018-04-24T12:59:59.178Z,28.90
2018-04-24T13:02:26.610Z,29.60
2018-04-24T13:04:54.057Z,29.40
2018-04-24T13:07:21.518Z,30.20
2018-04-24T13:09:49.025Z,31.20
2018-04-24T13:12:16.429Z,31.40
2018-04-24T13:14:43.857Z,31.20
2018-04-24T13:17:11.342Z,31.70
2018-04-24T13:19:38.778Z,32.70
2018-04-24T13:22:06.194Z,32.80
2018-04-24T13:24:33.726Z,32.60
2018-04-24T13:27:01.492Z,32.40
2018-04-24T13:29:28.932Z,32.20
2018-04-24T13:31:56.345Z,32.50
2018-04-24T13:34:23.770Z,32.10
2018-04-24T13:36:51.198Z,31.80
2018-04-24T13:39:18.615Z,31.40
2018-04-24T13:41:46.909Z,30.60
2018-04-24T13:44:14.488Z,30.60
2018-04-24T13:46:41.961Z,31.00
2018-04-24T13:49:09.414Z,30.80
2018-04-24T13:51:36.841Z,31.10
2018-04-24T13:54:04.321Z,31.20
2018-04-24T13:56:31.818Z,31.10
2018-04-24T13:58:59.240Z,30.90
2018-04-24T14:01:26.667Z,30.60
2018-04-24T14:03:54.246Z,30.00
2018-04-24T14:06:21.718Z,30.50
2018-04-24T14:08:49.085Z,30.60
2018-04-24T14:11:16.614Z,30.30
2018-04-24T14:13:44.030Z,29.80
2018-04-24T14:16:11.472Z,29.50
2018-04-24T14:18:38.883Z,29.50
2018-04-24T14:21:06.442Z,29.40
2018-04-24T14:23:33.870Z,29.40
2018-04-24T14:26:01.274Z,29.50
2018-04-24T14:28:28.709Z,29.40
2018-04-24T14:30:56.294Z,29.10
2018-04-24T14:33:23.869Z,28.50
2018-04-24T14:35:51.402Z,28.50
2018-04-24T14:38:18.845Z,28.60
2018-04-24T14:40:46.373Z,28.50
2018-04-24T14:43:13.796Z,28.70
2018-04-24T14:45:41.229Z,28.90
2018-04-24T14:48:08.768Z,29.10
2018-04-24T14:50:36.177Z,29.20
2018-04-24T14:53:03.613Z,28.80
2018-04-24T14:55:31.025Z,28.70
2018-04-24T14:57:58.609Z,28.70
2018-04-24T15:00:26.343Z,29.00
2018-04-24T15:02:53.753Z,29.20
2018-04-24T15:05:21.177Z,29.20
2018-04-24T15:07:48.591Z,29.30
2018-04-24T15:10:16.018Z,29.30
2018-04-24T15:12:43.627Z,29.30
2018-04-24T15:15:11.101Z,29.00
2018-04-24T15:17:38.710Z,28.70
2018-04-24T15:20:06.942Z,28.20
2018-04-24T15:22:34.541Z,28.20
2018-04-24T15:25:02.733Z,28.10
2018-04-24T15:27:30.203Z,28.10
2018-04-24T15:29:57.641Z,27.80
2018-04-24T15:32:25.058Z,27.80
2018-04-24T15:34:52.604Z,27.70
2018-04-24T15:37:19.966Z,27.60
2018-04-24T15:39:47.493Z,27.50
2018-04-24T15:42:14.929Z,27.30
2018-04-24T15:44:42.350Z,27.20
2018-04-24T15:47:09.965Z,26.90
2018-04-24T15:49:37.497Z,26.90
2018-04-24T15:52:04.989Z,26.80
2018-04-24T15:54:32.436Z,26.50
2018-04-24T15:56:59.985Z,26.50
2018-04-24T15:59:27.414Z,26.60
2018-04-24T16:01:54.842Z,26.40
2018-04-24T16:04:22.274Z,26.20
2018-04-24T16:06:49.775Z,26.10
2018-04-24T16:09:17.910Z,25.90
2018-04-24T16:11:45.654Z,25.80
2018-04-24T16:14:13.062Z,25.80
2018-04-24T16:16:40.540Z,25.70
2018-04-24T16:19:08.013Z,25.60
2018-04-24T16:21:35.431Z,25.40
2018-04-24T16:24:02.927Z,25.40
2018-04-24T16:26:30.358Z,25.00
2018-04-24T16:28:57.765Z,24.90
2018-04-24T16:31:25.186Z,24.80
2018-04-24T16:33:53.603Z,24.70
2018-04-24T16:36:21.045Z,24.50
2018-04-24T16:38:48.490Z,24.20
2018-04-24T16:41:15.912Z,24.00
2018-04-24T16:43:43.369Z,24.00
2018-04-24T16:46:10.885Z,23.90
2018-04-24T16:48:38.321Z,23.80
2018-04-24T16:51:05.856Z,23.80
2018-04-24T16:53:33.281Z,23.80
2018-04-24T16:56:00.778Z,23.70
2018-04-24T16:58:28.230Z,23.60
2018-04-24T17:00:55.675Z,23.40
2018-04-24T17:03:23.098Z,23.20
2018-04-24T17:05:50.510Z,23.00
2018-04-24T17:08:17.951Z,22.90
2018-04-24T17:10:45.363Z,22.70
2018-04-24T17:13:12.778Z,22.60
2018-04-24T17:15:40.312Z,22.50
2018-04-24T17:18:07.754Z,22.30
2018-04-24T17:20:35.197Z,22.10
2018-04-24T17:23:03.589Z,21.80
2018-04-24T17:25:31.151Z,21.80
2018-04-24T17:27:58.630Z,21.80
2018-04-24T17:30:26.052Z,21.80
2018-04-24T17:32:53.457Z,21.80
2018-04-24T17:35:20.879Z,21.80
2018-04-24T17:37:48.329Z,21.80
2018-04-24T17:40:15.766Z,21.70
2018-04-24T17:42:43.992Z,21.50
2018-04-24T17:45:11.468Z,21.40
2018-04-24T17:47:38.895Z,21.40
2018-04-24T17:50:06.323Z,21.20
2018-04-24T17:52:33.737Z,21.10
2018-04-24T17:55:01.263Z,21.10
2018-04-24T17:57:28.672Z,21.00
2018-04-24T17:59:56.186Z,20.90
2018-04-24T18:02:23.978Z,20.90
2018-04-24T18:04:52.892Z,20.80
2018-04-24T18:07:20.333Z,20.80
2018-04-24T18:09:47.754Z,20.80
2018-04-24T18:12:15.299Z,20.70
2018-04-24T18:14:42.714Z,20.70
2018-04-24T18:17:10.138Z,20.70
2018-04-24T18:19:37.573Z,20.70
2018-04-24T18:22:05.002Z,20.70
2018-04-24T18:24:33.187Z,20.60
2018-04-24T18:27:00.654Z,20.60
2018-04-24T18:29:28.074Z,20.60
2018-04-24T18:31:55.602Z,20.60
2018-04-24T18:34:23.338Z,20.40
2018-04-24T18:36:50.770Z,20.40
2018-04-24T18:39:19.034Z,20.40
2018-04-24T18:41:46.622Z,20.40
2018-04-24T18:44:14.056Z,20.40
2018-04-24T18:46:41.461Z,20.40
2018-04-24T18:49:08.890Z,20.40
2018-04-24T18:51:36.452Z,20.40
2018-04-24T18:54:04.074Z,20.40
2018-04-24T18:56:31.662Z,20.40
2018-04-24T18:58:59.090Z,20.40
2018-04-24T19:01:26.509Z,20.40
2018-04-24T19:03:53.934Z,20.40
2018-04-24T19:06:21.345Z,20.30
2018-04-24T19:08:49.543Z,20.20
2018-04-24T19:11:16.950Z,20.20
2018-04-24T19:13:44.368Z,20.30
2018-04-24T19:16:11.796Z,20.20
2018-04-24T19:18:44.777Z,20.20
2018-04-24T19:21:12.220Z,20.00
2018-04-24T19:23:40.468Z,19.70
2018-04-24T19:26:07.826Z,19.70
2018-04-24T19:28:35.251Z,19.70
2018-04-24T19:31:08.245Z,19.70
2018-04-24T19:33:35.673Z,19.70
2018-04-24T19:36:03.101Z,19.70
2018-04-24T19:38:31.277Z,19.60
2018-04-24T19:41:05.081Z,19.50
2018-04-24T19:43:32.466Z,19.50
2018-04-24T19:46:00.038Z,19.50
2018-04-24T19:48:33.137Z,19.40
2018-04-24T19:51:00.557Z,19.40
2018-04-24T19:53:27.969Z,19.30
2018-04-24T19:55:55.378Z,19.20
2018-04-24T19:58:22.818Z,19.10
2018-04-24T20:00:50.229Z,19.10
2018-04-24T20:03:17.641Z,19.00
2018-04-24T20:05:45.063Z,19.00
2018-04-24T20:08:12.499Z,19.00
2018-04-24T20:10:39.982Z,19.00
2018-04-24T20:13:07.362Z,18.90
2018-04-24T20:15:34.782Z,18.80
2018-04-24T20:18:02.201Z,18.80
2018-04-24T20:20:29.625Z,18.70
2018-04-24T20:22:57.042Z,18.70
2018-04-24T20:25:24.474Z,18.70
2018-04-24T20:27:51.899Z,18.70
2018-04-24T20:30:19.326Z,18.70
2018-04-24T20:32:46.743Z,18.60
2018-04-24T20:35:14.166Z,18.70
2018-04-24T20:37:41.592Z,18.70
2018-04-24T20:40:09.086Z,18.70
2018-04-24T20:42:36.512Z,18.80
2018-04-24T20:45:03.938Z,18.80
2018-04-24T20:47:32.312Z,18.80
2018-04-24T20:49:59.837Z,18.70
2018-04-24T20:52:27.249Z,18.60
2018-04-24T20:54:54.764Z,18.60
2018-04-24T20:57:22.189Z,18.50
2018-04-24T20:59:49.658Z,18.50
2018-04-24T21:02:17.074Z,18.40
2018-04-24T21:04:44.579Z,18.30
2018-04-24T21:07:13.577Z,18.30
2018-04-24T21:09:41.330Z,18.20
2018-04-24T21:12:08.770Z,18.20
2018-04-24T21:14:36.177Z,18.20
2018-04-24T21:17:03.698Z,18.10
2018-04-24T21:19:31.216Z,18.00
2018-04-24T21:21:58.608Z,18.00
2018-04-24T21:24:26.069Z,17.90
2018-04-24T21:26:53.486Z,17.80
2018-04-24T21:29:20.984Z,17.60
2018-04-24T21:31:48.442Z,17.30
2018-04-24T21:34:15.858Z,17.20
2018-04-24T21:36:43.291Z,17.10
2018-04-24T21:39:10.701Z,17.10
2018-04-24T21:41:38.160Z,17.00
2018-04-24T21:44:05.573Z,17.00
2018-04-24T21:46:33.763Z,17.10
2018-04-24T21:49:01.246Z,17.10
2018-04-24T21:51:28.723Z,17.10
2018-04-24T21:53:56.105Z,17.00
2018-04-24T21:56:23.624Z,17.00
2018-04-24T21:58:51.075Z,17.10
2018-04-24T22:01:18.523Z,17.00
2018-04-24T22:03:45.977Z,16.90
2018-04-24T22:06:13.438Z,16.80
2018-04-24T22:08:40.890Z,16.70
2018-04-24T22:11:08.366Z,16.60
2018-04-24T22:13:35.787Z,16.70
2018-04-24T22:16:03.202Z,16.70
2018-04-24T22:18:30.730Z,16.60
2018-04-24T22:20:58.152Z,16.60
2018-04-24T22:23:25.630Z,16.60
2018-04-24T22:25:53.087Z,16.50
2018-04-24T22:28:20.513Z,16.50
2018-04-24T22:30:47.926Z,16.40
2018-04-24T22:33:15.385Z,16.40
2018-04-24T22:35:42.910Z,16.30
2018-04-24T22:38:10.329Z,16.30
2018-04-24T22:40:37.829Z,16.20
2018-04-24T22:43:05.188Z,16.20
2018-04-24T22:45:32.734Z,16.20
2018-04-24T22:48:00.144Z,16.20
2018-04-24T22:50:27.648Z,16.20
2018-04-24T22:52:55.058Z,16.10
2018-04-24T22:55:22.486Z,16.10
2018-04-24T22:57:49.914Z,16.10
2018-04-24T23:00:17.483Z,16.10
2018-04-24T23:02:44.929Z,16.20
2018-04-24T23:05:12.353Z,16.10
2018-04-24T23:07:39.866Z,16.00
2018-04-24T23:10:06.990Z,16.00
2018-04-24T23:12:46.125Z,16.00
2018-04-24T23:15:25.561Z,15.90
2018-04-24T23:18:04.971Z,15.70
2018-04-24T23:20:32.145Z,15.70
2018-04-24T23:22:59.587Z,15.60
2018-04-24T23:25:27.063Z,15.70
2018-04-24T23:27:54.491Z,15.50
2018-04-24T23:30:21.929Z,15.40
2018-04-24T23:32:49.349Z,15.50
2018-04-24T23:35:16.887Z,15.40
2018-04-24T23:37:44.314Z,15.40
2018-04-24T23:40:11.729Z,15.30
2018-04-24T23:42:39.273Z,15.30
2018-04-24T23:45:06.689Z,15.30
2018-04-24T23:47:34.177Z,15.20
2018-04-24T23:50:01.586Z,15.20
2018-04-24T23:52:29.006Z,15.20
2018-04-24T23:54:56.735Z,15.20
2018-04-24T23:57:24.293Z,15.10
2018-04-24T23:59:51.705Z,15.20
